sensor_id;sensor_type;location;lat;lon;timestamp;P1;durP1;ratioP1;P2;durP2;ratioP2
56285;SDS011;42191;47.562;9.686;2023-08-24T00:00:59;32.78;;;30.40;;
56285;SDS011;42191;47.562;9.686;2023-08-24T00:03:25;34.63;;;31.95;;
56285;SDS011;42191;47.562;9.686;2023-08-24T00:05:52;34.08;;;31.80;;
56285;SDS011;42191;47.562;9.686;2023-08-24T00:08:18;35.15;;;32.55;;
56285;SDS011;42191;47.562;9.686;2023-08-24T00:10:44;34.05;;;31.52;;
56285;SDS011;42191;47.562;9.686;2023-08-24T00:13:14;35.63;;;33.13;;
56285;SDS011;42191;47.562;9.686;2023-08-24T00:15:40;35.17;;;32.15;;
56285;SDS011;42191;47.562;9.686;2023-08-24T00:18:06;34.70;;;32.10;;
56285;SDS011;42191;47.562;9.686;2023-08-24T00:20:33;35.40;;;32.70;;
56285;SDS011;42191;47.562;9.686;2023-08-24T00:23:00;35.85;;;33.42;;
56285;SDS011;42191;47.562;9.686;2023-08-24T00:25:26;34.67;;;32.03;;
56285;SDS011;42191;47.562;9.686;2023-08-24T00:27:55;35.20;;;32.45;;
56285;SDS011;42191;47.562;9.686;2023-08-24T00:30:23;35.15;;;32.55;;
56285;SDS011;42191;47.562;9.686;2023-08-24T00:32:49;34.83;;;32.33;;
56285;SDS011;42191;47.562;9.686;2023-08-24T00:35:15;34.20;;;31.77;;
56285;SDS011;42191;47.562;9.686;2023-08-24T00:37:41;33.28;;;30.90;;
56285;SDS011;42191;47.562;9.686;2023-08-24T00:40:07;34.17;;;31.77;;
56285;SDS011;42191;47.562;9.686;2023-08-24T00:42:41;35.17;;;32.72;;
56285;SDS011;42191;47.562;9.686;2023-08-24T00:45:09;35.85;;;33.45;;
56285;SDS011;42191;47.562;9.686;2023-08-24T00:47:36;35.10;;;32.63;;
56285;SDS011;42191;47.562;9.686;2023-08-24T00:50:07;34.67;;;32.17;;
56285;SDS011;42191;47.562;9.686;2023-08-24T00:52:35;34.50;;;32.22;;
56285;SDS011;42191;47.562;9.686;2023-08-24T00:55:04;34.72;;;31.95;;
56285;SDS011;42191;47.562;9.686;2023-08-24T00:57:31;36.70;;;33.90;;
56285;SDS011;42191;47.562;9.686;2023-08-24T00:59:58;34.08;;;31.77;;
56285;SDS011;42191;47.562;9.686;2023-08-24T01:02:27;36.22;;;33.58;;
56285;SDS011;42191;47.562;9.686;2023-08-24T01:04:53;34.20;;;31.80;;
56285;SDS011;42191;47.562;9.686;2023-08-24T01:07:19;34.55;;;32.25;;
56285;SDS011;42191;47.562;9.686;2023-08-24T01:09:46;33.50;;;30.65;;
56285;SDS011;42191;47.562;9.686;2023-08-24T01:12:17;36.58;;;33.83;;
56285;SDS011;42191;47.562;9.686;2023-08-24T01:15:13;33.67;;;31.48;;
56285;SDS011;42191;47.562;9.686;2023-08-24T01:17:51;34.92;;;32.42;;
56285;SDS011;42191;47.562;9.686;2023-08-24T01:20:20;35.55;;;33.05;;
56285;SDS011;42191;47.562;9.686;2023-08-24T01:25:15;35.17;;;32.58;;
56285;SDS011;42191;47.562;9.686;2023-08-24T01:27:46;35.20;;;32.30;;
56285;SDS011;42191;47.562;9.686;2023-08-24T01:30:14;35.72;;;33.33;;
56285;SDS011;42191;47.562;9.686;2023-08-24T01:32:40;36.38;;;33.80;;
56285;SDS011;42191;47.562;9.686;2023-08-24T01:35:08;35.08;;;32.75;;
56285;SDS011;42191;47.562;9.686;2023-08-24T01:37:35;35.65;;;33.20;;
56285;SDS011;42191;47.562;9.686;2023-08-24T01:40:06;34.80;;;32.50;;
56285;SDS011;42191;47.562;9.686;2023-08-24T01:42:56;35.20;;;32.75;;
56285;SDS011;42191;47.562;9.686;2023-08-24T01:45:28;35.72;;;33.13;;
56285;SDS011;42191;47.562;9.686;2023-08-24T01:47:56;34.85;;;32.45;;
56285;SDS011;42191;47.562;9.686;2023-08-24T01:50:25;35.67;;;33.08;;
56285;SDS011;42191;47.562;9.686;2023-08-24T01:52:51;34.28;;;31.95;;
56285;SDS011;42191;47.562;9.686;2023-08-24T01:55:18;36.40;;;33.67;;
56285;SDS011;42191;47.562;9.686;2023-08-24T01:57:44;35.67;;;33.28;;
56285;SDS011;42191;47.562;9.686;2023-08-24T02:00:11;35.90;;;33.40;;
56285;SDS011;42191;47.562;9.686;2023-08-24T02:02:37;35.75;;;33.13;;
56285;SDS011;42191;47.562;9.686;2023-08-24T02:05:03;34.72;;;32.08;;
56285;SDS011;42191;47.562;9.686;2023-08-24T02:07:30;35.63;;;33.13;;
56285;SDS011;42191;47.562;9.686;2023-08-24T02:09:56;35.30;;;32.85;;
56285;SDS011;42191;47.562;9.686;2023-08-24T02:12:22;35.53;;;32.92;;
56285;SDS011;42191;47.562;9.686;2023-08-24T02:14:48;35.30;;;32.47;;
56285;SDS011;42191;47.562;9.686;2023-08-24T02:17:14;35.90;;;33.47;;
56285;SDS011;42191;47.562;9.686;2023-08-24T02:19:40;35.25;;;32.80;;
56285;SDS011;42191;47.562;9.686;2023-08-24T02:22:07;35.38;;;32.88;;
56285;SDS011;42191;47.562;9.686;2023-08-24T02:24:33;35.53;;;32.97;;
56285;SDS011;42191;47.562;9.686;2023-08-24T02:27:00;35.50;;;32.90;;
56285;SDS011;42191;47.562;9.686;2023-08-24T02:29:26;34.50;;;32.03;;
56285;SDS011;42191;47.562;9.686;2023-08-24T02:31:52;35.92;;;33.33;;
56285;SDS011;42191;47.562;9.686;2023-08-24T02:34:19;37.40;;;34.78;;
56285;SDS011;42191;47.562;9.686;2023-08-24T02:36:45;37.35;;;34.65;;
56285;SDS011;42191;47.562;9.686;2023-08-24T02:39:11;35.80;;;33.08;;
56285;SDS011;42191;47.562;9.686;2023-08-24T02:41:37;37.60;;;35.00;;
56285;SDS011;42191;47.562;9.686;2023-08-24T02:44:04;37.00;;;34.25;;
56285;SDS011;42191;47.562;9.686;2023-08-24T02:46:30;36.35;;;33.55;;
56285;SDS011;42191;47.562;9.686;2023-08-24T02:48:56;35.95;;;33.28;;
56285;SDS011;42191;47.562;9.686;2023-08-24T02:51:22;37.67;;;35.03;;
56285;SDS011;42191;47.562;9.686;2023-08-24T02:53:49;35.22;;;32.72;;
56285;SDS011;42191;47.562;9.686;2023-08-24T02:56:15;35.92;;;33.40;;
56285;SDS011;42191;47.562;9.686;2023-08-24T02:58:41;35.45;;;32.80;;
56285;SDS011;42191;47.562;9.686;2023-08-24T03:01:07;36.80;;;34.03;;
56285;SDS011;42191;47.562;9.686;2023-08-24T03:03:34;37.80;;;35.15;;
56285;SDS011;42191;47.562;9.686;2023-08-24T03:06:02;35.35;;;32.85;;
56285;SDS011;42191;47.562;9.686;2023-08-24T03:08:30;37.58;;;34.85;;
56285;SDS011;42191;47.562;9.686;2023-08-24T03:10:58;36.13;;;33.58;;
56285;SDS011;42191;47.562;9.686;2023-08-24T03:13:28;35.50;;;33.03;;
56285;SDS011;42191;47.562;9.686;2023-08-24T03:15:55;35.40;;;32.97;;
56285;SDS011;42191;47.562;9.686;2023-08-24T03:18:22;37.90;;;35.20;;
56285;SDS011;42191;47.562;9.686;2023-08-24T03:20:48;36.33;;;33.55;;
56285;SDS011;42191;47.562;9.686;2023-08-24T03:23:15;35.70;;;33.05;;
56285;SDS011;42191;47.562;9.686;2023-08-24T03:25:41;37.08;;;34.28;;
56285;SDS011;42191;47.562;9.686;2023-08-24T03:28:08;36.88;;;34.13;;
56285;SDS011;42191;47.562;9.686;2023-08-24T03:30:35;36.95;;;34.15;;
56285;SDS011;42191;47.562;9.686;2023-08-24T03:33:03;36.80;;;34.10;;
56285;SDS011;42191;47.562;9.686;2023-08-24T03:35:30;35.28;;;32.88;;
56285;SDS011;42191;47.562;9.686;2023-08-24T03:37:57;36.05;;;33.38;;
56285;SDS011;42191;47.562;9.686;2023-08-24T03:40:23;37.30;;;34.70;;
56285;SDS011;42191;47.562;9.686;2023-08-24T03:42:50;37.05;;;34.55;;
56285;SDS011;42191;47.562;9.686;2023-08-24T03:45:16;36.55;;;33.80;;
56285;SDS011;42191;47.562;9.686;2023-08-24T03:47:42;36.47;;;33.95;;
56285;SDS011;42191;47.562;9.686;2023-08-24T03:50:08;36.53;;;33.92;;
56285;SDS011;42191;47.562;9.686;2023-08-24T03:52:34;36.88;;;34.15;;
56285;SDS011;42191;47.562;9.686;2023-08-24T03:55:00;37.53;;;34.92;;
56285;SDS011;42191;47.562;9.686;2023-08-24T03:57:27;36.78;;;34.15;;
56285;SDS011;42191;47.562;9.686;2023-08-24T03:59:53;34.72;;;31.90;;
56285;SDS011;42191;47.562;9.686;2023-08-24T04:02:19;35.92;;;33.42;;
56285;SDS011;42191;47.562;9.686;2023-08-24T04:04:45;37.42;;;34.45;;
56285;SDS011;42191;47.562;9.686;2023-08-24T04:07:11;34.78;;;32.28;;
56285;SDS011;42191;47.562;9.686;2023-08-24T04:09:37;36.75;;;33.97;;
56285;SDS011;42191;47.562;9.686;2023-08-24T04:12:04;34.15;;;31.55;;
56285;SDS011;42191;47.562;9.686;2023-08-24T04:14:31;36.13;;;33.42;;
56285;SDS011;42191;47.562;9.686;2023-08-24T04:16:57;34.78;;;32.17;;
56285;SDS011;42191;47.562;9.686;2023-08-24T04:19:23;37.00;;;34.33;;
56285;SDS011;42191;47.562;9.686;2023-08-24T04:21:49;36.90;;;33.90;;
56285;SDS011;42191;47.562;9.686;2023-08-24T04:24:15;35.88;;;33.28;;
56285;SDS011;42191;47.562;9.686;2023-08-24T04:26:41;36.92;;;34.33;;
56285;SDS011;42191;47.562;9.686;2023-08-24T04:29:07;36.60;;;33.83;;
56285;SDS011;42191;47.562;9.686;2023-08-24T04:31:34;36.67;;;34.17;;
56285;SDS011;42191;47.562;9.686;2023-08-24T04:34:01;36.22;;;33.55;;
56285;SDS011;42191;47.562;9.686;2023-08-24T04:36:28;35.88;;;33.28;;
56285;SDS011;42191;47.562;9.686;2023-08-24T04:38:55;36.28;;;33.67;;
56285;SDS011;42191;47.562;9.686;2023-08-24T04:41:21;37.03;;;34.42;;
56285;SDS011;42191;47.562;9.686;2023-08-24T04:43:47;36.90;;;34.22;;
56285;SDS011;42191;47.562;9.686;2023-08-24T04:46:13;37.53;;;34.42;;
56285;SDS011;42191;47.562;9.686;2023-08-24T04:48:39;36.08;;;33.42;;
56285;SDS011;42191;47.562;9.686;2023-08-24T04:51:05;35.50;;;32.97;;
56285;SDS011;42191;47.562;9.686;2023-08-24T04:53:31;36.42;;;33.70;;
56285;SDS011;42191;47.562;9.686;2023-08-24T04:55:57;36.80;;;34.10;;
56285;SDS011;42191;47.562;9.686;2023-08-24T04:58:23;35.25;;;32.53;;
56285;SDS011;42191;47.562;9.686;2023-08-24T05:00:50;36.35;;;33.83;;
56285;SDS011;42191;47.562;9.686;2023-08-24T05:03:16;35.30;;;32.70;;
56285;SDS011;42191;47.562;9.686;2023-08-24T05:05:42;36.67;;;34.03;;
56285;SDS011;42191;47.562;9.686;2023-08-24T05:08:09;37.97;;;35.38;;
56285;SDS011;42191;47.562;9.686;2023-08-24T05:10:35;36.00;;;33.33;;
56285;SDS011;42191;47.562;9.686;2023-08-24T05:13:02;34.88;;;32.33;;
56285;SDS011;42191;47.562;9.686;2023-08-24T05:15:28;37.88;;;34.90;;
56285;SDS011;42191;47.562;9.686;2023-08-24T05:17:55;36.80;;;33.80;;
56285;SDS011;42191;47.562;9.686;2023-08-24T05:20:25;36.83;;;34.22;;
56285;SDS011;42191;47.562;9.686;2023-08-24T05:22:51;34.25;;;31.73;;
56285;SDS011;42191;47.562;9.686;2023-08-24T05:25:20;35.38;;;32.78;;
56285;SDS011;42191;47.562;9.686;2023-08-24T05:27:46;35.08;;;32.58;;
56285;SDS011;42191;47.562;9.686;2023-08-24T05:30:13;36.33;;;33.63;;
56285;SDS011;42191;47.562;9.686;2023-08-24T05:32:39;34.92;;;32.25;;
56285;SDS011;42191;47.562;9.686;2023-08-24T05:35:05;35.00;;;32.20;;
56285;SDS011;42191;47.562;9.686;2023-08-24T05:37:32;35.13;;;32.42;;
56285;SDS011;42191;47.562;9.686;2023-08-24T05:39:59;35.80;;;33.03;;
56285;SDS011;42191;47.562;9.686;2023-08-24T05:42:26;35.58;;;32.95;;
56285;SDS011;42191;47.562;9.686;2023-08-24T05:44:52;36.25;;;33.50;;
56285;SDS011;42191;47.562;9.686;2023-08-24T05:47:18;36.22;;;33.33;;
56285;SDS011;42191;47.562;9.686;2023-08-24T05:49:44;35.20;;;32.55;;
56285;SDS011;42191;47.562;9.686;2023-08-24T05:52:10;35.88;;;33.15;;
56285;SDS011;42191;47.562;9.686;2023-08-24T05:54:37;35.00;;;32.00;;
56285;SDS011;42191;47.562;9.686;2023-08-24T05:57:03;34.72;;;32.35;;
56285;SDS011;42191;47.562;9.686;2023-08-24T05:59:30;35.08;;;32.47;;
56285;SDS011;42191;47.562;9.686;2023-08-24T06:02:00;35.40;;;32.38;;
56285;SDS011;42191;47.562;9.686;2023-08-24T06:04:26;35.65;;;33.25;;
56285;SDS011;42191;47.562;9.686;2023-08-24T06:06:52;35.30;;;32.80;;
56285;SDS011;42191;47.562;9.686;2023-08-24T06:09:18;35.20;;;32.75;;
56285;SDS011;42191;47.562;9.686;2023-08-24T06:11:44;35.58;;;32.97;;
56285;SDS011;42191;47.562;9.686;2023-08-24T06:14:10;36.45;;;33.15;;
56285;SDS011;42191;47.562;9.686;2023-08-24T06:16:36;34.78;;;32.20;;
56285;SDS011;42191;47.562;9.686;2023-08-24T06:19:02;34.17;;;31.10;;
56285;SDS011;42191;47.562;9.686;2023-08-24T06:21:28;35.03;;;32.15;;
56285;SDS011;42191;47.562;9.686;2023-08-24T06:23:54;34.50;;;31.73;;
56285;SDS011;42191;47.562;9.686;2023-08-24T06:26:20;33.70;;;31.35;;
56285;SDS011;42191;47.562;9.686;2023-08-24T06:28:46;35.03;;;31.98;;
56285;SDS011;42191;47.562;9.686;2023-08-24T06:31:13;34.10;;;31.60;;
56285;SDS011;42191;47.562;9.686;2023-08-24T06:33:41;34.17;;;31.67;;
56285;SDS011;42191;47.562;9.686;2023-08-24T06:36:07;33.63;;;31.05;;
56285;SDS011;42191;47.562;9.686;2023-08-24T06:38:33;34.72;;;32.15;;
56285;SDS011;42191;47.562;9.686;2023-08-24T06:41:00;34.30;;;31.70;;
56285;SDS011;42191;47.562;9.686;2023-08-24T06:43:26;35.90;;;32.72;;
56285;SDS011;42191;47.562;9.686;2023-08-24T06:45:54;33.67;;;30.92;;
56285;SDS011;42191;47.562;9.686;2023-08-24T06:48:20;35.30;;;32.00;;
56285;SDS011;42191;47.562;9.686;2023-08-24T06:50:47;35.47;;;32.95;;
56285;SDS011;42191;47.562;9.686;2023-08-24T06:53:13;35.47;;;32.40;;
56285;SDS011;42191;47.562;9.686;2023-08-24T06:55:40;36.42;;;33.67;;
56285;SDS011;42191;47.562;9.686;2023-08-24T06:58:06;32.83;;;30.23;;
56285;SDS011;42191;47.562;9.686;2023-08-24T07:00:32;35.45;;;32.45;;
56285;SDS011;42191;47.562;9.686;2023-08-24T07:02:58;34.55;;;31.65;;
56285;SDS011;42191;47.562;9.686;2023-08-24T07:05:25;36.58;;;33.38;;
56285;SDS011;42191;47.562;9.686;2023-08-24T07:07:51;35.33;;;32.75;;
56285;SDS011;42191;47.562;9.686;2023-08-24T07:10:18;35.08;;;32.47;;
56285;SDS011;42191;47.562;9.686;2023-08-24T07:12:45;34.58;;;32.13;;
56285;SDS011;42191;47.562;9.686;2023-08-24T07:15:12;34.17;;;31.65;;
56285;SDS011;42191;47.562;9.686;2023-08-24T07:17:38;35.03;;;32.20;;
56285;SDS011;42191;47.562;9.686;2023-08-24T07:20:04;33.95;;;31.25;;
56285;SDS011;42191;47.562;9.686;2023-08-24T07:22:32;34.72;;;31.48;;
56285;SDS011;42191;47.562;9.686;2023-08-24T07:24:59;33.13;;;30.55;;
56285;SDS011;42191;47.562;9.686;2023-08-24T07:27:26;33.00;;;30.40;;
56285;SDS011;42191;47.562;9.686;2023-08-24T07:29:53;33.58;;;30.60;;
56285;SDS011;42191;47.562;9.686;2023-08-24T07:32:19;32.38;;;29.90;;
56285;SDS011;42191;47.562;9.686;2023-08-24T07:34:45;32.55;;;30.27;;
56285;SDS011;42191;47.562;9.686;2023-08-24T07:37:12;31.10;;;28.75;;
56285;SDS011;42191;47.562;9.686;2023-08-24T07:39:38;32.00;;;29.35;;
56285;SDS011;42191;47.562;9.686;2023-08-24T07:42:04;32.58;;;30.17;;
56285;SDS011;42191;47.562;9.686;2023-08-24T07:44:31;32.00;;;29.40;;
56285;SDS011;42191;47.562;9.686;2023-08-24T07:46:57;31.30;;;28.65;;
56285;SDS011;42191;47.562;9.686;2023-08-24T07:49:23;32.03;;;28.98;;
56285;SDS011;42191;47.562;9.686;2023-08-24T07:51:49;33.25;;;30.50;;
56285;SDS011;42191;47.562;9.686;2023-08-24T07:54:15;33.03;;;29.98;;
56285;SDS011;42191;47.562;9.686;2023-08-24T07:56:42;32.53;;;29.90;;
56285;SDS011;42191;47.562;9.686;2023-08-24T07:59:08;33.70;;;30.48;;
56285;SDS011;42191;47.562;9.686;2023-08-24T08:01:34;33.60;;;30.38;;
56285;SDS011;42191;47.562;9.686;2023-08-24T08:04:00;32.60;;;29.90;;
56285;SDS011;42191;47.562;9.686;2023-08-24T08:06:26;32.97;;;30.23;;
56285;SDS011;42191;47.562;9.686;2023-08-24T08:08:52;31.73;;;29.50;;
56285;SDS011;42191;47.562;9.686;2023-08-24T08:11:18;32.67;;;29.90;;
56285;SDS011;42191;47.562;9.686;2023-08-24T08:13:46;34.80;;;32.20;;
56285;SDS011;42191;47.562;9.686;2023-08-24T08:16:12;35.08;;;31.95;;
56285;SDS011;42191;47.562;9.686;2023-08-24T08:18:38;34.05;;;31.33;;
56285;SDS011;42191;47.562;9.686;2023-08-24T08:21:15;33.63;;;30.92;;
56285;SDS011;42191;47.562;9.686;2023-08-24T08:23:45;33.08;;;30.35;;
56285;SDS011;42191;47.562;9.686;2023-08-24T08:26:12;33.08;;;30.58;;
56285;SDS011;42191;47.562;9.686;2023-08-24T08:28:41;33.88;;;31.17;;
56285;SDS011;42191;47.562;9.686;2023-08-24T08:31:07;35.58;;;32.22;;
56285;SDS011;42191;47.562;9.686;2023-08-24T08:33:33;36.78;;;33.15;;
56285;SDS011;42191;47.562;9.686;2023-08-24T08:35:59;35.47;;;32.42;;
56285;SDS011;42191;47.562;9.686;2023-08-24T08:38:25;34.63;;;32.03;;
56285;SDS011;42191;47.562;9.686;2023-08-24T08:40:56;34.20;;;31.52;;
56285;SDS011;42191;47.562;9.686;2023-08-24T08:43:29;35.55;;;32.38;;
56285;SDS011;42191;47.562;9.686;2023-08-24T08:45:55;34.97;;;31.88;;
56285;SDS011;42191;47.562;9.686;2023-08-24T08:48:23;34.63;;;32.15;;
56285;SDS011;42191;47.562;9.686;2023-08-24T08:50:50;33.55;;;30.85;;
56285;SDS011;42191;47.562;9.686;2023-08-24T08:53:21;35.50;;;32.80;;
56285;SDS011;42191;47.562;9.686;2023-08-24T08:55:52;36.08;;;32.95;;
56285;SDS011;42191;47.562;9.686;2023-08-24T08:58:20;34.75;;;32.03;;
56285;SDS011;42191;47.562;9.686;2023-08-24T09:00:47;34.95;;;32.15;;
56285;SDS011;42191;47.562;9.686;2023-08-24T09:03:16;35.60;;;32.80;;
56285;SDS011;42191;47.562;9.686;2023-08-24T09:05:44;33.92;;;31.38;;
56285;SDS011;42191;47.562;9.686;2023-08-24T09:08:13;35.63;;;32.72;;
56285;SDS011;42191;47.562;9.686;2023-08-24T09:10:43;33.92;;;31.25;;
56285;SDS011;42191;47.562;9.686;2023-08-24T09:13:10;34.63;;;32.05;;
56285;SDS011;42191;47.562;9.686;2023-08-24T09:15:36;34.97;;;32.30;;
56285;SDS011;42191;47.562;9.686;2023-08-24T09:18:02;34.88;;;31.95;;
56285;SDS011;42191;47.562;9.686;2023-08-24T09:20:29;34.53;;;31.67;;
56285;SDS011;42191;47.562;9.686;2023-08-24T09:22:55;35.22;;;32.53;;
56285;SDS011;42191;47.562;9.686;2023-08-24T09:25:22;36.22;;;33.17;;
56285;SDS011;42191;47.562;9.686;2023-08-24T09:30:29;35.25;;;32.45;;
56285;SDS011;42191;47.562;9.686;2023-08-24T09:33:00;37.00;;;33.75;;
56285;SDS011;42191;47.562;9.686;2023-08-24T09:35:35;35.38;;;32.47;;
56285;SDS011;42191;47.562;9.686;2023-08-24T09:38:15;35.45;;;32.83;;
56285;SDS011;42191;47.562;9.686;2023-08-24T09:40:46;35.17;;;32.47;;
56285;SDS011;42191;47.562;9.686;2023-08-24T09:43:18;34.92;;;32.30;;
56285;SDS011;42191;47.562;9.686;2023-08-24T09:48:18;35.70;;;32.85;;
56285;SDS011;42191;47.562;9.686;2023-08-24T09:50:45;34.05;;;31.65;;
56285;SDS011;42191;47.562;9.686;2023-08-24T09:53:16;35.10;;;32.13;;
56285;SDS011;42191;47.562;9.686;2023-08-24T09:56:08;34.75;;;31.98;;
56285;SDS011;42191;47.562;9.686;2023-08-24T09:58:33;36.22;;;33.47;;
56285;SDS011;42191;47.562;9.686;2023-08-24T10:01:00;35.17;;;32.53;;
56285;SDS011;42191;47.562;9.686;2023-08-24T10:03:28;34.78;;;31.90;;
56285;SDS011;42191;47.562;9.686;2023-08-24T10:05:58;35.83;;;32.85;;
56285;SDS011;42191;47.562;9.686;2023-08-24T10:08:29;35.05;;;32.45;;
56285;SDS011;42191;47.562;9.686;2023-08-24T10:10:59;36.35;;;33.38;;
56285;SDS011;42191;47.562;9.686;2023-08-24T10:16:04;34.85;;;32.15;;
56285;SDS011;42191;47.562;9.686;2023-08-24T10:18:32;34.95;;;32.03;;
56285;SDS011;42191;47.562;9.686;2023-08-24T10:20:58;35.35;;;32.22;;
56285;SDS011;42191;47.562;9.686;2023-08-24T10:23:26;34.95;;;32.53;;
56285;SDS011;42191;47.562;9.686;2023-08-24T10:25:54;34.15;;;31.27;;
56285;SDS011;42191;47.562;9.686;2023-08-24T10:28:20;35.30;;;32.60;;
56285;SDS011;42191;47.562;9.686;2023-08-24T10:30:52;36.00;;;33.10;;
56285;SDS011;42191;47.562;9.686;2023-08-24T10:33:19;35.58;;;32.90;;
56285;SDS011;42191;47.562;9.686;2023-08-24T10:35:47;35.72;;;32.53;;
56285;SDS011;42191;47.562;9.686;2023-08-24T10:40:54;33.53;;;30.92;;
56285;SDS011;42191;47.562;9.686;2023-08-24T10:43:28;33.90;;;31.33;;
56285;SDS011;42191;47.562;9.686;2023-08-24T10:45:58;33.83;;;31.10;;
56285;SDS011;42191;47.562;9.686;2023-08-24T10:48:25;33.75;;;31.13;;
56285;SDS011;42191;47.562;9.686;2023-08-24T10:53:45;33.28;;;30.92;;
56285;SDS011;42191;47.562;9.686;2023-08-24T10:56:13;32.58;;;29.80;;
56285;SDS011;42191;47.562;9.686;2023-08-24T10:58:41;33.00;;;30.27;;
56285;SDS011;42191;47.562;9.686;2023-08-24T11:01:19;33.55;;;30.73;;
56285;SDS011;42191;47.562;9.686;2023-08-24T11:04:05;32.83;;;30.15;;
56285;SDS011;42191;47.562;9.686;2023-08-24T11:06:34;33.20;;;30.27;;
56285;SDS011;42191;47.562;9.686;2023-08-24T11:09:15;34.40;;;31.60;;
56285;SDS011;42191;47.562;9.686;2023-08-24T11:11:42;33.35;;;30.77;;
56285;SDS011;42191;47.562;9.686;2023-08-24T11:14:19;33.05;;;30.42;;
56285;SDS011;42191;47.562;9.686;2023-08-24T11:16:51;32.90;;;30.05;;
56285;SDS011;42191;47.562;9.686;2023-08-24T11:19:18;33.42;;;30.73;;
56285;SDS011;42191;47.562;9.686;2023-08-24T11:21:45;33.88;;;31.17;;
56285;SDS011;42191;47.562;9.686;2023-08-24T11:24:12;31.58;;;28.95;;
56285;SDS011;42191;47.562;9.686;2023-08-24T11:26:43;35.08;;;32.20;;
56285;SDS011;42191;47.562;9.686;2023-08-24T11:29:13;33.53;;;31.13;;
56285;SDS011;42191;47.562;9.686;2023-08-24T11:31:40;34.53;;;31.92;;
56285;SDS011;42191;47.562;9.686;2023-08-24T11:34:07;34.53;;;31.92;;
56285;SDS011;42191;47.562;9.686;2023-08-24T11:36:46;32.58;;;30.23;;
56285;SDS011;42191;47.562;9.686;2023-08-24T11:39:19;33.67;;;31.02;;
56285;SDS011;42191;47.562;9.686;2023-08-24T11:41:57;32.80;;;30.35;;
56285;SDS011;42191;47.562;9.686;2023-08-24T11:44:23;31.42;;;29.08;;
56285;SDS011;42191;47.562;9.686;2023-08-24T11:46:49;32.40;;;29.75;;
56285;SDS011;42191;47.562;9.686;2023-08-24T11:49:15;32.85;;;30.40;;
56285;SDS011;42191;47.562;9.686;2023-08-24T11:51:42;33.25;;;30.80;;
56285;SDS011;42191;47.562;9.686;2023-08-24T11:54:08;33.15;;;30.55;;
56285;SDS011;42191;47.562;9.686;2023-08-24T11:56:40;31.60;;;29.33;;
56285;SDS011;42191;47.562;9.686;2023-08-24T11:59:12;30.80;;;28.33;;
56285;SDS011;42191;47.562;9.686;2023-08-24T12:01:40;31.92;;;29.63;;
56285;SDS011;42191;47.562;9.686;2023-08-24T12:04:07;32.17;;;29.65;;
56285;SDS011;42191;47.562;9.686;2023-08-24T12:06:34;32.17;;;29.38;;
56285;SDS011;42191;47.562;9.686;2023-08-24T12:09:00;32.33;;;29.27;;
56285;SDS011;42191;47.562;9.686;2023-08-24T12:11:29;31.67;;;28.92;;
56285;SDS011;42191;47.562;9.686;2023-08-24T12:14:03;30.67;;;28.20;;
56285;SDS011;42191;47.562;9.686;2023-08-24T12:16:32;31.52;;;28.88;;
56285;SDS011;42191;47.562;9.686;2023-08-24T12:18:59;31.60;;;29.13;;
56285;SDS011;42191;47.562;9.686;2023-08-24T12:21:28;30.92;;;28.60;;
56285;SDS011;42191;47.562;9.686;2023-08-24T12:23:57;31.80;;;29.00;;
56285;SDS011;42191;47.562;9.686;2023-08-24T12:26:24;31.83;;;29.05;;
56285;SDS011;42191;47.562;9.686;2023-08-24T12:28:55;31.52;;;29.02;;
56285;SDS011;42191;47.562;9.686;2023-08-24T12:31:27;31.17;;;28.52;;
56285;SDS011;42191;47.562;9.686;2023-08-24T12:36:28;30.55;;;28.27;;
56285;SDS011;42191;47.562;9.686;2023-08-24T12:38:55;30.65;;;28.33;;
56285;SDS011;42191;47.562;9.686;2023-08-24T12:41:21;30.98;;;28.67;;
56285;SDS011;42191;47.562;9.686;2023-08-24T12:43:48;30.98;;;28.55;;
56285;SDS011;42191;47.562;9.686;2023-08-24T12:46:15;30.35;;;28.15;;
56285;SDS011;42191;47.562;9.686;2023-08-24T12:48:42;30.05;;;27.65;;
56285;SDS011;42191;47.562;9.686;2023-08-24T12:51:08;31.13;;;28.45;;
56285;SDS011;42191;47.562;9.686;2023-08-24T12:53:34;31.73;;;28.80;;
56285;SDS011;42191;47.562;9.686;2023-08-24T12:56:00;30.50;;;28.20;;
56285;SDS011;42191;47.562;9.686;2023-08-24T12:58:26;29.75;;;27.15;;
56285;SDS011;42191;47.562;9.686;2023-08-24T13:00:52;30.15;;;27.52;;
56285;SDS011;42191;47.562;9.686;2023-08-24T13:03:18;30.30;;;27.77;;
56285;SDS011;42191;47.562;9.686;2023-08-24T13:05:44;29.92;;;27.45;;
56285;SDS011;42191;47.562;9.686;2023-08-24T13:08:12;29.55;;;27.15;;
56285;SDS011;42191;47.562;9.686;2023-08-24T13:10:38;30.25;;;27.60;;
56285;SDS011;42191;47.562;9.686;2023-08-24T13:13:04;29.67;;;27.17;;
56285;SDS011;42191;47.562;9.686;2023-08-24T13:15:31;30.90;;;28.10;;
56285;SDS011;42191;47.562;9.686;2023-08-24T13:17:57;31.13;;;28.80;;
56285;SDS011;42191;47.562;9.686;2023-08-24T13:20:23;30.83;;;28.42;;
56285;SDS011;42191;47.562;9.686;2023-08-24T13:22:50;30.25;;;28.00;;
56285;SDS011;42191;47.562;9.686;2023-08-24T13:25:17;30.13;;;27.30;;
56285;SDS011;42191;47.562;9.686;2023-08-24T13:27:43;29.05;;;26.73;;
56285;SDS011;42191;47.562;9.686;2023-08-24T13:30:10;29.73;;;27.20;;
56285;SDS011;42191;47.562;9.686;2023-08-24T13:32:36;29.52;;;27.23;;
56285;SDS011;42191;47.562;9.686;2023-08-24T13:35:04;28.30;;;25.65;;
56285;SDS011;42191;47.562;9.686;2023-08-24T13:37:30;28.80;;;26.15;;
56285;SDS011;42191;47.562;9.686;2023-08-24T13:39:57;27.63;;;25.30;;
56285;SDS011;42191;47.562;9.686;2023-08-24T13:42:24;27.58;;;25.33;;
56285;SDS011;42191;47.562;9.686;2023-08-24T13:44:50;26.70;;;24.60;;
56285;SDS011;42191;47.562;9.686;2023-08-24T13:47:16;26.25;;;24.15;;
56285;SDS011;42191;47.562;9.686;2023-08-24T13:49:43;25.98;;;23.73;;
56285;SDS011;42191;47.562;9.686;2023-08-24T13:52:09;26.15;;;23.50;;
56285;SDS011;42191;47.562;9.686;2023-08-24T13:54:35;24.17;;;22.38;;
56285;SDS011;42191;47.562;9.686;2023-08-24T13:57:01;25.45;;;23.17;;
56285;SDS011;42191;47.562;9.686;2023-08-24T13:59:27;25.85;;;23.33;;
56285;SDS011;42191;47.562;9.686;2023-08-24T14:01:54;25.17;;;23.30;;
56285;SDS011;42191;47.562;9.686;2023-08-24T14:04:20;25.90;;;23.67;;
56285;SDS011;42191;47.562;9.686;2023-08-24T14:06:46;25.63;;;23.38;;
56285;SDS011;42191;47.562;9.686;2023-08-24T14:09:13;25.92;;;23.45;;
56285;SDS011;42191;47.562;9.686;2023-08-24T14:11:39;25.00;;;22.88;;
56285;SDS011;42191;47.562;9.686;2023-08-24T14:14:06;25.33;;;23.05;;
56285;SDS011;42191;47.562;9.686;2023-08-24T14:16:32;24.42;;;22.60;;
56285;SDS011;42191;47.562;9.686;2023-08-24T14:18:59;25.73;;;23.38;;
56285;SDS011;42191;47.562;9.686;2023-08-24T14:21:25;24.80;;;22.80;;
56285;SDS011;42191;47.562;9.686;2023-08-24T14:23:51;25.20;;;22.98;;
56285;SDS011;42191;47.562;9.686;2023-08-24T14:26:17;25.13;;;23.23;;
56285;SDS011;42191;47.562;9.686;2023-08-24T14:28:53;25.70;;;23.33;;
56285;SDS011;42191;47.562;9.686;2023-08-24T14:31:21;24.98;;;22.80;;
56285;SDS011;42191;47.562;9.686;2023-08-24T14:33:52;25.20;;;22.85;;
56285;SDS011;42191;47.562;9.686;2023-08-24T14:36:19;24.83;;;22.67;;
56285;SDS011;42191;47.562;9.686;2023-08-24T14:38:45;25.83;;;23.42;;
56285;SDS011;42191;47.562;9.686;2023-08-24T14:41:13;25.30;;;23.15;;